Time;durP1;ratioP1;P1;durP2;ratioP2;P2;SDS_P1;SDS_P2;PMS_P1;PMS_P2;Temp;Humidity;BMP_temperature;BMP_pressure;BME280_temperature;BME280_humidity;BME280_pressure;Samples;Min_cycle;Max_cycle;Signal;HPM_P1;HPM_P2
2024/01/16 00:01:23;;;;;;;17.83;8.37;;;;;;;;;;5006651;28;20080;-68
2024/01/16 00:03:48;;;;;;;28.73;12.15;;;;;;;;;;5011366;28;20361;-68
2024/01/16 00:06:14;;;;;;;24.67;10.88;;;;;;;;;;5006267;28;20010;-68
2024/01/16 00:08:39;;;;;;;25.75;9.52;;;;;;;;;;5005907;28;20025;-68
2024/01/16 00:11:04;;;;;;;17.83;9.45;;;;;;;;;;5003254;28;20048;-68
2024/01/16 00:13:29;;;;;;;19.65;8.40;;;;;;;;;;5008793;28;20013;-68
2024/01/16 00:15:56;;;;;;;30.42;10.35;;;;;;;;;;5004124;28;20022;-69
2024/01/16 00:18:21;;;;;;;29.23;12.70;;;;;;;;;;5003695;28;20018;-69
2024/01/16 00:20:47;;;;;;;16.15;7.88;;;;;;;;;;5005367;28;20026;-68
2024/01/16 00:23:12;;;;;;;27.08;11.23;;;;;;;;;;5004435;28;20030;-68
2024/01/16 00:25:37;;;;;;;22.65;12.65;;;;;;;;;;5005528;28;20527;-68
2024/01/16 00:28:02;;;;;;;23.13;9.57;;;;;;;;;;5009839;28;20022;-68
2024/01/16 00:30:29;;;;;;;24.35;12.55;;;;;;;;;;5008258;28;20033;-68
2024/01/16 00:32:54;;;;;;;31.63;10.80;;;;;;;;;;5004323;28;20096;-68
2024/01/16 00:35:19;;;;;;;25.27;14.27;;;;;;;;;;5003954;28;20534;-68
2024/01/16 00:37:45;;;;;;;23.53;10.77;;;;;;;;;;5010210;28;20033;-68
2024/01/16 00:40:10;;;;;;;29.85;11.38;;;;;;;;;;5003744;28;20616;-70
2024/01/16 00:42:35;;;;;;;33.40;11.23;;;;;;;;;;5007007;28;20428;-68
2024/01/16 00:45:01;;;;;;;25.85;12.68;;;;;;;;;;5009512;28;20029;-68
2024/01/16 00:47:26;;;;;;;33.97;13.70;;;;;;;;;;5008123;28;20030;-68
2024/01/16 00:49:51;;;;;;;30.65;13.43;;;;;;;;;;5004629;28;20018;-68
2024/01/16 00:52:16;;;;;;;26.63;13.20;;;;;;;;;;5004003;28;20030;-68
2024/01/16 00:54:44;;;;;;;29.60;10.80;;;;;;;;;;5005138;28;20017;-68
2024/01/16 00:57:10;;;;;;;29.42;13.75;;;;;;;;;;5001881;28;20022;-69
2024/01/16 00:59:36;;;;;;;24.60;11.95;;;;;;;;;;5004652;28;20088;-68
2024/01/16 01:02:01;;;;;;;27.52;11.73;;;;;;;;;;5005254;28;20084;-68
2024/01/16 01:04:26;;;;;;;42.60;16.65;;;;;;;;;;5006238;28;20040;-68
2024/01/16 01:06:51;;;;;;;22.10;9.83;;;;;;;;;;5003448;28;20485;-68
2024/01/16 01:09:16;;;;;;;23.38;11.07;;;;;;;;;;5002573;28;20259;-68
2024/01/16 01:11:42;;;;;;;34.67;12.07;;;;;;;;;;5004812;28;20018;-68
2024/01/16 01:14:07;;;;;;;23.95;10.75;;;;;;;;;;5002221;28;20555;-68
2024/01/16 01:16:32;;;;;;;26.83;11.35;;;;;;;;;;5004745;28;20032;-68
2024/01/16 01:18:58;;;;;;;34.03;13.15;;;;;;;;;;5009120;28;20060;-68
2024/01/16 01:21:23;;;;;;;28.23;14.23;;;;;;;;;;5007237;28;20026;-68
2024/01/16 01:23:48;;;;;;;27.85;11.95;;;;;;;;;;5001024;28;20033;-68
2024/01/16 01:26:14;;;;;;;27.52;10.80;;;;;;;;;;5002466;28;20098;-68
2024/01/16 01:28:40;;;;;;;37.28;12.63;;;;;;;;;;5004319;28;20030;-68
2024/01/16 01:31:05;;;;;;;32.85;13.90;;;;;;;;;;5002665;28;20488;-68
2024/01/16 01:33:30;;;;;;;31.23;11.60;;;;;;;;;;5004583;28;20040;-68
2024/01/16 01:35:55;;;;;;;29.20;10.73;;;;;;;;;;5001090;28;20084;-68
2024/01/16 01:38:20;;;;;;;26.38;10.40;;;;;;;;;;5003512;28;20277;-68
2024/01/16 01:40:46;;;;;;;42.40;15.82;;;;;;;;;;5003823;28;20042;-69
2024/01/16 01:43:19;;;;;;;41.70;12.88;;;;;;;;;;5000625;28;20112;-68
2024/01/16 01:45:45;;;;;;;30.60;10.10;;;;;;;;;;5005792;28;20037;-68
2024/01/16 01:48:10;;;;;;;42.10;14.80;;;;;;;;;;5002612;28;20759;-68
2024/01/16 01:50:35;;;;;;;31.13;11.48;;;;;;;;;;5004214;28;20018;-67
2024/01/16 01:53:00;;;;;;;30.10;11.75;;;;;;;;;;5006928;28;20473;-68
2024/01/16 01:55:26;;;;;;;29.48;8.55;;;;;;;;;;5003856;28;20097;-68
2024/01/16 01:57:52;;;;;;;30.00;11.45;;;;;;;;;;5003916;28;20108;-68
2024/01/16 02:00:18;;;;;;;34.60;11.23;;;;;;;;;;5001777;28;20130;-68
2024/01/16 02:02:44;;;;;;;45.38;11.20;;;;;;;;;;5004579;28;20096;-68
2024/01/16 02:05:09;;;;;;;38.95;13.48;;;;;;;;;;5002738;28;20082;-68
2024/01/16 02:07:35;;;;;;;47.95;11.70;;;;;;;;;;5000703;28;21409;-68
2024/01/16 02:10:00;;;;;;;42.95;11.23;;;;;;;;;;5007060;28;20558;-68
2024/01/16 02:12:26;;;;;;;35.58;10.43;;;;;;;;;;5005852;28;20060;-68
2024/01/16 02:14:51;;;;;;;24.30;9.35;;;;;;;;;;5002972;28;20400;-69
2024/01/16 02:17:16;;;;;;;31.58;8.90;;;;;;;;;;5002320;28;20044;-68
2024/01/16 02:19:41;;;;;;;28.85;9.73;;;;;;;;;;5005074;28;20083;-68
2024/01/16 02:22:09;;;;;;;18.20;8.50;;;;;;;;;;5003363;28;20029;-68
2024/01/16 02:24:34;;;;;;;31.98;11.45;;;;;;;;;;4997947;28;20026;-68
2024/01/16 02:26:59;;;;;;;29.15;9.43;;;;;;;;;;5006999;28;20025;-68
2024/01/16 02:29:25;;;;;;;31.85;10.90;;;;;;;;;;5005659;28;20034;-68
2024/01/16 02:31:50;;;;;;;27.33;14.13;;;;;;;;;;5004163;28;20029;-68
2024/01/16 02:34:15;;;;;;;39.47;12.77;;;;;;;;;;5002084;28;20315;-68
2024/01/16 02:36:40;;;;;;;33.55;12.68;;;;;;;;;;5004230;28;20447;-68
2024/01/16 02:39:06;;;;;;;26.13;12.15;;;;;;;;;;5002259;28;20525;-68
2024/01/16 02:41:31;;;;;;;31.83;11.75;;;;;;;;;;5006977;28;20511;-68
2024/01/16 02:43:56;;;;;;;38.03;14.13;;;;;;;;;;5009857;28;20469;-68
2024/01/16 02:46:22;;;;;;;24.08;10.25;;;;;;;;;;5012782;28;20485;-68
2024/01/16 02:48:47;;;;;;;24.35;10.45;;;;;;;;;;5010981;28;20049;-68
2024/01/16 02:51:12;;;;;;;29.20;11.40;;;;;;;;;;5006390;28;20022;-68
2024/01/16 02:53:37;;;;;;;31.33;10.32;;;;;;;;;;5011818;28;20014;-68
2024/01/16 02:56:03;;;;;;;26.70;9.35;;;;;;;;;;5006835;28;20037;-68
2024/01/16 02:58:29;;;;;;;25.48;8.55;;;;;;;;;;5010249;28;20026;-68
2024/01/16 03:00:54;;;;;;;21.90;8.88;;;;;;;;;;5012858;28;20045;-68
2024/01/16 03:03:20;;;;;;;29.08;9.52;;;;;;;;;;5008533;28;20543;-68
2024/01/16 03:05:45;;;;;;;28.98;7.97;;;;;;;;;;5008890;28;20033;-68
2024/01/16 03:08:10;;;;;;;22.23;8.43;;;;;;;;;;5007642;28;20031;-68
2024/01/16 03:10:36;;;;;;;29.45;7.72;;;;;;;;;;5010709;28;20620;-68
2024/01/16 03:13:01;;;;;;;28.48;8.20;;;;;;;;;;5006904;28;20014;-69
2024/01/16 03:15:26;;;;;;;21.42;8.27;;;;;;;;;;5009361;28;20408;-69
2024/01/16 03:17:52;;;;;;;22.88;9.63;;;;;;;;;;5011897;28;20026;-70
2024/01/16 03:20:18;;;;;;;30.60;8.63;;;;;;;;;;5005925;28;20057;-69
2024/01/16 03:22:44;;;;;;;21.77;8.57;;;;;;;;;;5010326;28;20032;-70
2024/01/16 03:25:09;;;;;;;28.42;8.05;;;;;;;;;;5005372;28;20030;-69
2024/01/16 03:27:34;;;;;;;23.92;8.35;;;;;;;;;;5010146;28;20033;-70
2024/01/16 03:30:00;;;;;;;23.38;10.60;;;;;;;;;;5006798;28;20022;-69
2024/01/16 03:32:25;;;;;;;23.13;9.25;;;;;;;;;;5002800;28;20021;-69
2024/01/16 03:34:51;;;;;;;25.02;9.80;;;;;;;;;;5009940;28;20023;-69
2024/01/16 03:37:16;;;;;;;30.60;10.00;;;;;;;;;;5005529;28;20029;-69
2024/01/16 03:39:41;;;;;;;24.35;9.73;;;;;;;;;;5007661;28;20257;-69
2024/01/16 03:42:06;;;;;;;23.30;10.90;;;;;;;;;;5005901;28;20109;-69
2024/01/16 03:44:32;;;;;;;36.22;11.48;;;;;;;;;;5007556;28;20018;-69
2024/01/16 03:46:57;;;;;;;38.60;12.18;;;;;;;;;;5006738;28;20508;-70
2024/01/16 03:49:22;;;;;;;38.67;11.05;;;;;;;;;;5008673;28;20022;-70
2024/01/16 03:51:47;;;;;;;25.88;11.32;;;;;;;;;;5008167;28;20021;-70
2024/01/16 03:54:15;;;;;;;35.08;12.88;;;;;;;;;;5008631;28;20111;-70
2024/01/16 03:56:40;;;;;;;34.05;13.50;;;;;;;;;;5004280;28;20033;-70
2024/01/16 03:59:05;;;;;;;37.30;14.23;;;;;;;;;;5005916;28;20030;-70
2024/01/16 04:01:31;;;;;;;25.50;10.40;;;;;;;;;;5006559;28;20022;-70
2024/01/16 04:03:57;;;;;;;39.53;12.15;;;;;;;;;;5008661;28;20030;-70
2024/01/16 04:06:22;;;;;;;30.63;11.93;;;;;;;;;;5004639;28;20442;-70
2024/01/16 04:08:48;;;;;;;34.95;10.88;;;;;;;;;;5008419;28;20033;-70
2024/01/16 04:11:13;;;;;;;40.35;12.70;;;;;;;;;;5006668;28;20018;-70
2024/01/16 04:13:38;;;;;;;32.15;10.50;;;;;;;;;;5005802;28;20014;-70
2024/01/16 04:16:04;;;;;;;24.23;10.63;;;;;;;;;;5005966;28;20018;-70
2024/01/16 04:18:29;;;;;;;27.60;12.00;;;;;;;;;;5007804;28;20041;-70
2024/01/16 04:20:54;;;;;;;30.33;11.50;;;;;;;;;;5011368;28;20036;-70
2024/01/16 04:23:19;;;;;;;29.75;11.15;;;;;;;;;;5009797;28;20026;-70
2024/01/16 04:25:44;;;;;;;31.92;13.77;;;;;;;;;;5008423;28;20402;-71
2024/01/16 04:28:09;;;;;;;29.80;12.73;;;;;;;;;;5005189;28;20038;-70
2024/01/16 04:30:35;;;;;;;32.80;14.70;;;;;;;;;;5006895;28;20276;-70
2024/01/16 04:33:00;;;;;;;31.20;12.38;;;;;;;;;;5006327;28;20052;-68
2024/01/16 04:35:25;;;;;;;35.07;11.80;;;;;;;;;;5007569;28;20080;-67
2024/01/16 04:37:51;;;;;;;38.45;12.05;;;;;;;;;;5009758;28;20284;-67
2024/01/16 04:40:16;;;;;;;27.52;12.43;;;;;;;;;;5007747;28;20504;-67
2024/01/16 04:42:42;;;;;;;38.83;13.40;;;;;;;;;;5007255;28;20080;-68
2024/01/16 04:45:07;;;;;;;25.13;11.23;;;;;;;;;;5005037;28;20903;-68
2024/01/16 04:47:32;;;;;;;35.20;14.85;;;;;;;;;;5007341;28;20014;-68
2024/01/16 04:49:58;;;;;;;35.88;12.93;;;;;;;;;;5006732;28;20457;-67
2024/01/16 04:52:23;;;;;;;32.92;13.43;;;;;;;;;;5003693;28;20093;-67
2024/01/16 04:54:48;;;;;;;37.40;13.90;;;;;;;;;;5005670;28;20030;-67
2024/01/16 04:57:13;;;;;;;35.20;13.10;;;;;;;;;;5004763;28;20084;-67
2024/01/16 04:59:38;;;;;;;31.10;13.35;;;;;;;;;;5006910;28;20014;-67
2024/01/16 05:02:04;;;;;;;34.53;12.38;;;;;;;;;;5005386;28;20049;-67
2024/01/16 05:04:29;;;;;;;31.10;12.23;;;;;;;;;;5005810;28;20030;-67
2024/01/16 05:06:55;;;;;;;39.45;11.82;;;;;;;;;;5006542;28;20043;-67
2024/01/16 05:09:20;;;;;;;33.63;11.43;;;;;;;;;;5003801;28;20040;-67
2024/01/16 05:11:45;;;;;;;36.35;11.40;;;;;;;;;;5010540;28;20022;-70
2024/01/16 05:14:11;;;;;;;26.42;9.60;;;;;;;;;;5006992;28;20058;-70
2024/01/16 05:16:36;;;;;;;28.10;10.80;;;;;;;;;;5008248;28;20567;-69
2024/01/16 05:19:01;;;;;;;20.67;8.30;;;;;;;;;;5005725;28;20033;-69
2024/01/16 05:21:27;;;;;;;36.40;9.95;;;;;;;;;;5005961;28;20041;-70
2024/01/16 05:23:52;;;;;;;31.88;13.63;;;;;;;;;;5003969;28;20022;-69
2024/01/16 05:26:17;;;;;;;37.33;14.90;;;;;;;;;;5005773;28;20045;-69
2024/01/16 05:28:42;;;;;;;30.15;13.85;;;;;;;;;;5006804;28;20014;-69
2024/01/16 05:31:07;;;;;;;27.77;12.98;;;;;;;;;;5006934;28;20033;-69
2024/01/16 05:33:33;;;;;;;29.23;9.32;;;;;;;;;;5006413;28;20060;-69
2024/01/16 05:35:58;;;;;;;24.50;11.73;;;;;;;;;;5006089;28;20022;-69
2024/01/16 05:38:23;;;;;;;40.35;13.35;;;;;;;;;;5006454;28;20037;-69
2024/01/16 05:40:48;;;;;;;37.28;13.15;;;;;;;;;;5006321;28;20030;-69
2024/01/16 05:43:14;;;;;;;26.37;10.30;;;;;;;;;;5010380;28;20044;-69
2024/01/16 05:45:39;;;;;;;30.25;11.02;;;;;;;;;;5005667;28;20284;-69
2024/01/16 05:48:07;;;;;;;31.85;9.95;;;;;;;;;;5005466;28;20018;-69
2024/01/16 05:50:32;;;;;;;29.60;9.52;;;;;;;;;;5005288;28;20018;-69
2024/01/16 05:52:57;;;;;;;28.05;8.32;;;;;;;;;;5005868;28;20369;-69
2024/01/16 05:55:22;;;;;;;29.30;8.45;;;;;;;;;;5005845;28;20040;-69
2024/01/16 05:57:47;;;;;;;25.83;7.30;;;;;;;;;;5009965;28;20088;-69
2024/01/16 06:00:13;;;;;;;22.33;8.52;;;;;;;;;;5004468;28;20065;-69
2024/01/16 06:02:38;;;;;;;22.00;9.90;;;;;;;;;;5006287;28;20508;-69
2024/01/16 06:05:03;;;;;;;27.48;8.77;;;;;;;;;;5006793;28;20439;-69
2024/01/16 06:07:29;;;;;;;24.25;7.00;;;;;;;;;;5005747;28;20053;-70
2024/01/16 06:09:54;;;;;;;20.80;7.68;;;;;;;;;;5006158;28;20018;-69
2024/01/16 06:12:19;;;;;;;16.38;3.60;;;;;;;;;;5006853;28;20018;-69
2024/01/16 06:14:45;;;;;;;13.45;5.85;;;;;;;;;;5008623;28;20485;-69
2024/01/16 06:17:10;;;;;;;13.85;3.70;;;;;;;;;;5006337;28;20507;-69
2024/01/16 06:19:35;;;;;;;7.47;3.42;;;;;;;;;;5006219;28;20029;-69
2024/01/16 06:22:01;;;;;;;18.13;5.55;;;;;;;;;;5007074;28;20424;-69
2024/01/16 06:24:26;;;;;;;4.15;2.47;;;;;;;;;;5005970;28;20071;-69
2024/01/16 06:26:51;;;;;;;20.35;3.40;;;;;;;;;;5006392;28;20032;-70
2024/01/16 06:29:16;;;;;;;15.75;5.18;;;;;;;;;;5003475;28;20474;-69
2024/01/16 06:31:41;;;;;;;19.30;4.38;;;;;;;;;;5005588;28;20409;-69
2024/01/16 06:34:07;;;;;;;23.27;5.20;;;;;;;;;;5004890;28;20042;-68
2024/01/16 06:36:32;;;;;;;24.77;4.90;;;;;;;;;;5004711;28;20052;-69
2024/01/16 06:38:57;;;;;;;19.42;4.53;;;;;;;;;;5004140;28;20057;-69
2024/01/16 06:41:22;;;;;;;19.50;5.40;;;;;;;;;;5002783;28;20513;-69
2024/01/16 06:43:47;;;;;;;22.87;4.40;;;;;;;;;;5004331;28;20025;-69
2024/01/16 06:46:13;;;;;;;26.88;5.15;;;;;;;;;;5002063;28;20340;-68
2024/01/16 06:48:38;;;;;;;14.88;4.97;;;;;;;;;;5006924;28;20017;-68
2024/01/16 06:51:04;;;;;;;21.25;4.70;;;;;;;;;;5002536;28;20889;-69
2024/01/16 06:53:29;;;;;;;21.25;3.95;;;;;;;;;;5003925;28;20029;-70
2024/01/16 06:55:54;;;;;;;26.67;5.85;;;;;;;;;;5004061;28;20072;-69
2024/01/16 06:58:19;;;;;;;17.17;3.55;;;;;;;;;;5003902;28;20025;-69
2024/01/16 07:00:46;;;;;;;10.13;3.75;;;;;;;;;;5003364;28;20026;-68
2024/01/16 07:03:11;;;;;;;17.23;4.07;;;;;;;;;;5006083;28;20473;-68
2024/01/16 07:05:37;;;;;;;6.72;1.95;;;;;;;;;;5005824;28;20026;-69
2024/01/16 07:08:02;;;;;;;8.70;2.70;;;;;;;;;;5005139;28;20038;-69
2024/01/16 07:10:27;;;;;;;21.00;4.85;;;;;;;;;;5005172;28;20011;-69
2024/01/16 07:12:53;;;;;;;20.35;4.25;;;;;;;;;;5004136;28;20018;-69
2024/01/16 07:15:18;;;;;;;16.30;4.28;;;;;;;;;;5003367;28;20022;-68
2024/01/16 07:17:43;;;;;;;16.60;3.92;;;;;;;;;;5002311;28;20064;-68
2024/01/16 07:20:09;;;;;;;7.25;2.53;;;;;;;;;;5005261;28;20105;-68
2024/01/16 07:22:34;;;;;;;16.42;3.50;;;;;;;;;;5007067;28;20026;-69
2024/01/16 07:25:00;;;;;;;18.17;5.00;;;;;;;;;;5005359;28;20120;-69
2024/01/16 07:27:25;;;;;;;18.27;5.00;;;;;;;;;;5007026;28;20018;-69
2024/01/16 07:29:50;;;;;;;31.73;5.03;;;;;;;;;;5008958;28;20070;-69
2024/01/16 07:32:16;;;;;;;15.10;3.78;;;;;;;;;;5005121;28;20080;-69
2024/01/16 07:34:41;;;;;;;16.00;4.20;;;;;;;;;;5008259;28;20028;-69
2024/01/16 07:37:06;;;;;;;23.67;6.18;;;;;;;;;;5008683;28;20018;-69
2024/01/16 07:39:31;;;;;;;22.17;4.97;;;;;;;;;;5006882;28;20017;-69
2024/01/16 07:41:56;;;;;;;25.80;5.55;;;;;;;;;;5008372;28;20065;-69
2024/01/16 07:44:22;;;;;;;25.95;5.60;;;;;;;;;;5007993;28;20026;-69
2024/01/16 07:46:47;;;;;;;22.80;5.10;;;;;;;;;;5007450;28;20104;-69
2024/01/16 07:49:12;;;;;;;25.30;4.97;;;;;;;;;;5007989;28;20264;-69
2024/01/16 07:51:37;;;;;;;8.30;2.60;;;;;;;;;;5009332;28;20026;-69
2024/01/16 07:54:06;;;;;;;20.30;4.93;;;;;;;;;;5009538;28;20022;-69
2024/01/16 07:56:32;;;;;;;6.90;3.38;;;;;;;;;;5007152;28;20973;-69
2024/01/16 07:58:57;;;;;;;23.00;4.45;;;;;;;;;;5010037;28;20026;-69
2024/01/16 08:01:22;;;;;;;15.33;4.17;;;;;;;;;;5008459;28;20025;-69
2024/01/16 08:03:47;;;;;;;20.35;5.25;;;;;;;;;;5010889;28;20705;-69
2024/01/16 08:06:13;;;;;;;12.63;2.63;;;;;;;;;;5008715;28;20040;-69
2024/01/16 08:08:38;;;;;;;19.40;3.92;;;;;;;;;;5009544;28;20272;-69
2024/01/16 08:11:03;;;;;;;20.35;3.95;;;;;;;;;;5008202;28;20099;-69
2024/01/16 08:13:28;;;;;;;12.70;3.70;;;;;;;;;;5006218;28;20032;-69
2024/01/16 08:15:54;;;;;;;10.27;3.58;;;;;;;;;;5008833;28;20045;-69
2024/01/16 08:18:19;;;;;;;10.43;2.73;;;;;;;;;;5008656;28;20125;-69
2024/01/16 08:20:44;;;;;;;15.48;3.78;;;;;;;;;;5008658;28;20667;-69
2024/01/16 08:23:09;;;;;;;20.08;4.15;;;;;;;;;;5006868;28;20034;-69
2024/01/16 08:25:34;;;;;;;9.63;2.72;;;;;;;;;;5007536;28;20059;-69
2024/01/16 08:28:00;;;;;;;5.60;2.20;;;;;;;;;;5009283;28;20034;-69
2024/01/16 08:30:25;;;;;;;16.17;3.75;;;;;;;;;;5008362;28;20301;-69
2024/01/16 08:32:51;;;;;;;17.83;4.40;;;;;;;;;;5007414;28;20037;-69
2024/01/16 08:35:16;;;;;;;18.25;3.92;;;;;;;;;;5007574;28;20040;-69
2024/01/16 08:37:41;;;;;;;13.60;3.85;;;;;;;;;;5008143;28;20024;-69
2024/01/16 08:40:06;;;;;;;15.20;3.22;;;;;;;;;;5007869;28;20018;-69
2024/01/16 08:42:32;;;;;;;9.88;2.72;;;;;;;;;;5008824;28;20198;-69
2024/01/16 08:44:57;;;;;;;9.32;2.25;;;;;;;;;;5004287;28;20679;-69
2024/01/16 08:47:22;;;;;;;14.27;2.92;;;;;;;;;;5006993;28;20056;-69
2024/01/16 08:49:48;;;;;;;12.63;3.13;;;;;;;;;;5009106;28;20452;-70
2024/01/16 08:52:13;;;;;;;16.73;2.50;;;;;;;;;;5004969;28;20274;-70
2024/01/16 08:54:38;;;;;;;14.20;3.40;;;;;;;;;;5011081;28;20014;-70
2024/01/16 08:57:04;;;;;;;6.47;2.67;;;;;;;;;;5007980;28;20585;-70
2024/01/16 08:59:29;;;;;;;9.82;3.10;;;;;;;;;;5007791;28;20264;-70
2024/01/16 09:01:54;;;;;;;18.77;3.97;;;;;;;;;;5004911;28;20033;-70
2024/01/16 09:04:19;;;;;;;16.50;3.60;;;;;;;;;;5006459;28;20292;-70
2024/01/16 09:06:45;;;;;;;10.40;2.47;;;;;;;;;;5008514;28;20123;-70
2024/01/16 09:09:12;;;;;;;11.68;2.42;;;;;;;;;;5007001;28;20028;-70
2024/01/16 09:11:37;;;;;;;16.75;3.75;;;;;;;;;;5009373;28;20465;-70
2024/01/16 09:14:03;;;;;;;12.88;2.30;;;;;;;;;;5007884;28;20026;-70
2024/01/16 09:16:28;;;;;;;16.27;3.20;;;;;;;;;;5007690;28;20437;-68
2024/01/16 09:18:54;;;;;;;11.95;3.60;;;;;;;;;;5004383;28;20097;-70
2024/01/16 09:21:19;;;;;;;13.25;2.70;;;;;;;;;;5007635;28;20041;-70
2024/01/16 09:23:45;;;;;;;19.98;3.25;;;;;;;;;;5008560;28;20052;-70
2024/01/16 09:26:10;;;;;;;26.58;2.85;;;;;;;;;;5008492;28;20113;-70
2024/01/16 09:28:35;;;;;;;17.17;3.22;;;;;;;;;;5007960;28;20093;-70
2024/01/16 09:31:01;;;;;;;5.78;1.98;;;;;;;;;;5008428;28;20026;-70
2024/01/16 09:33:26;;;;;;;18.60;4.05;;;;;;;;;;5006246;28;20010;-70
2024/01/16 09:35:51;;;;;;;26.38;3.28;;;;;;;;;;5009348;28;20034;-70
2024/01/16 09:38:17;;;;;;;25.65;3.63;;;;;;;;;;5008666;28;20393;-70
2024/01/16 09:40:42;;;;;;;9.88;2.47;;;;;;;;;;5009224;28;20014;-70
2024/01/16 09:43:09;;;;;;;12.07;3.83;;;;;;;;;;5007397;28;20037;-70
2024/01/16 09:45:36;;;;;;;15.02;4.20;;;;;;;;;;5007386;28;20022;-70
2024/01/16 09:48:02;;;;;;;9.65;1.95;;;;;;;;;;5007814;28;20087;-70
2024/01/16 09:50:28;;;;;;;11.85;3.13;;;;;;;;;;5007232;28;20017;-70
2024/01/16 09:52:53;;;;;;;4.70;1.88;;;;;;;;;;5006437;28;20026;-70
2024/01/16 09:55:18;;;;;;;9.90;1.98;;;;;;;;;;5007548;28;20072;-70
2024/01/16 09:57:45;;;;;;;15.23;3.10;;;;;;;;;;5008429;28;20030;-70
2024/01/16 10:00:11;;;;;;;8.27;2.38;;;;;;;;;;5007580;28;20034;-70
2024/01/16 10:02:42;;;;;;;7.20;1.77;;;;;;;;;;5008662;28;20496;-70
2024/01/16 10:05:08;;;;;;;14.13;3.35;;;;;;;;;;5006592;28;20739;-70
2024/01/16 10:07:35;;;;;;;11.60;3.10;;;;;;;;;;5004517;28;20505;-70
2024/01/16 10:10:00;;;;;;;5.32;1.92;;;;;;;;;;5001071;28;20021;-70
2024/01/16 10:12:26;;;;;;;1.60;0.95;;;;;;;;;;5004837;28;20034;-69
2024/01/16 10:14:52;;;;;;;12.40;2.63;;;;;;;;;;5007889;28;20026;-69
2024/01/16 10:17:18;;;;;;;30.98;4.20;;;;;;;;;;5007322;28;20425;-70
2024/01/16 10:19:50;;;;;;;8.50;2.70;;;;;;;;;;5007861;28;20385;-70
2024/01/16 10:22:27;;;;;;;7.10;2.63;;;;;;;;;;5006880;28;20033;-70
2024/01/16 10:25:09;;;;;;;9.40;2.95;;;;;;;;;;5004058;28;20111;-70
2024/01/16 10:27:34;;;;;;;1.90;1.10;;;;;;;;;;5001171;28;20018;-70
2024/01/16 10:30:00;;;;;;;10.13;3.05;;;;;;;;;;5006206;28;20199;-69
2024/01/16 10:32:31;;;;;;;19.08;3.83;;;;;;;;;;5007038;28;20049;-70
2024/01/16 10:35:01;;;;;;;14.77;3.08;;;;;;;;;;5003276;28;20032;-70
2024/01/16 10:37:26;;;;;;;7.97;2.40;;;;;;;;;;5006917;28;20029;-70
2024/01/16 10:39:51;;;;;;;12.55;1.95;;;;;;;;;;5004179;28;20603;-70
2024/01/16 10:42:17;;;;;;;10.80;2.35;;;;;;;;;;5007938;28;20033;-70
2024/01/16 10:44:55;;;;;;;22.10;3.75;;;;;;;;;;5007952;28;20090;-70
2024/01/16 10:47:21;;;;;;;10.80;2.10;;;;;;;;;;5006978;28;20192;-70
2024/01/16 10:49:46;;;;;;;9.40;2.10;;;;;;;;;;5008108;28;20620;-70
2024/01/16 10:52:12;;;;;;;9.48;2.95;;;;;;;;;;5006967;28;20112;-70
2024/01/16 10:54:41;;;;;;;7.75;2.03;;;;;;;;;;5006331;28;20120;-70
2024/01/16 10:57:06;;;;;;;10.35;3.15;;;;;;;;;;4999100;28;20432;-70
2024/01/16 10:59:34;;;;;;;6.13;2.42;;;;;;;;;;5002214;28;20030;-70
2024/01/16 11:02:01;;;;;;;14.48;1.48;;;;;;;;;;5010877;28;20088;-70
2024/01/16 11:04:27;;;;;;;12.20;2.50;;;;;;;;;;5010199;28;20018;-70
2024/01/16 11:06:52;;;;;;;11.60;2.50;;;;;;;;;;5011748;28;20496;-70
2024/01/16 11:09:18;;;;;;;15.07;2.40;;;;;;;;;;5008512;28;20026;-70
2024/01/16 11:11:46;;;;;;;7.40;2.30;;;;;;;;;;5012525;28;20092;-70
2024/01/16 11:14:12;;;;;;;12.23;2.50;;;;;;;;;;5010712;28;20416;-70
2024/01/16 11:16:39;;;;;;;7.80;1.73;;;;;;;;;;5012166;28;20020;-70
2024/01/16 11:19:06;;;;;;;2.80;1.58;;;;;;;;;;5011539;28;20072;-70
2024/01/16 11:21:32;;;;;;;10.10;2.92;;;;;;;;;;5011174;28;20028;-70
2024/01/16 11:23:57;;;;;;;7.38;2.28;;;;;;;;;;5004013;28;20104;-70
2024/01/16 11:26:30;;;;;;;11.32;1.85;;;;;;;;;;5008449;28;20022;-70
2024/01/16 11:28:59;;;;;;;15.45;2.53;;;;;;;;;;5010075;28;20365;-70
2024/01/16 11:31:34;;;;;;;10.85;2.63;;;;;;;;;;5007592;28;20026;-70
2024/01/16 11:33:59;;;;;;;22.05;4.40;;;;;;;;;;5008781;28;20022;-70
2024/01/16 11:36:46;;;;;;;17.73;3.40;;;;;;;;;;5006673;28;20428;-70
2024/01/16 11:39:16;;;;;;;16.50;2.25;;;;;;;;;;5002139;28;20359;-70
2024/01/16 11:41:48;;;;;;;9.90;1.88;;;;;;;;;;5005038;28;20069;-70
2024/01/16 11:44:34;;;;;;;19.05;3.28;;;;;;;;;;5006571;28;20037;-70
2024/01/16 11:47:00;;;;;;;14.45;3.15;;;;;;;;;;5011446;28;20018;-70
2024/01/16 11:49:25;;;;;;;12.40;2.55;;;;;;;;;;5010891;28;20025;-70
2024/01/16 11:51:50;;;;;;;21.42;3.40;;;;;;;;;;5007547;28;20033;-70
2024/01/16 11:54:15;;;;;;;9.27;3.00;;;;;;;;;;5003835;28;20042;-70
2024/01/16 11:57:07;;;;;;;12.48;2.55;;;;;;;;;;5008355;28;20663;-70
2024/01/16 11:59:35;;;;;;;9.60;2.85;;;;;;;;;;4975567;28;20030;-70
2024/01/16 12:02:02;;;;;;;10.52;2.85;;;;;;;;;;5005695;28;20045;-70
2024/01/16 12:04:27;;;;;;;14.80;3.92;;;;;;;;;;5008688;28;20022;-70
2024/01/16 12:06:58;;;;;;;12.95;3.30;;;;;;;;;;5009829;28;20462;-70
2024/01/16 12:09:25;;;;;;;12.38;2.88;;;;;;;;;;5003985;28;20516;-70
2024/01/16 12:12:01;;;;;;;12.55;3.00;;;;;;;;;;5011287;28;20094;-70
2024/01/16 12:14:26;;;;;;;13.85;3.08;;;;;;;;;;5008483;28;20026;-67
2024/01/16 12:16:51;;;;;;;14.48;2.65;;;;;;;;;;5009572;28;20444;-70
2024/01/16 12:19:17;;;;;;;9.32;2.28;;;;;;;;;;5009283;28;20030;-70
2024/01/16 12:21:43;;;;;;;10.10;3.63;;;;;;;;;;5010671;28;20025;-70
2024/01/16 12:24:09;;;;;;;19.08;3.30;;;;;;;;;;5010342;28;20032;-70
2024/01/16 12:26:34;;;;;;;23.60;3.67;;;;;;;;;;5008833;28;20509;-70
2024/01/16 12:29:00;;;;;;;21.73;3.38;;;;;;;;;;5011058;28;20042;-70
2024/01/16 12:31:25;;;;;;;3.25;1.45;;;;;;;;;;5010186;28;20013;-70
2024/01/16 12:33:51;;;;;;;27.45;4.63;;;;;;;;;;5010624;28;20392;-70
2024/01/16 12:36:16;;;;;;;11.32;2.83;;;;;;;;;;5008005;28;20037;-70
2024/01/16 12:38:42;;;;;;;9.55;2.72;;;;;;;;;;5005987;28;20099;-70
2024/01/16 12:41:08;;;;;;;7.87;2.23;;;;;;;;;;5009928;28;20543;-70
2024/01/16 12:43:34;;;;;;;9.63;2.97;;;;;;;;;;5009859;28;20253;-70
2024/01/16 12:45:59;;;;;;;12.82;1.98;;;;;;;;;;5009117;28;20022;-70
2024/01/16 12:48:27;;;;;;;7.50;3.25;;;;;;;;;;5010441;28;20097;-70
2024/01/16 12:51:02;;;;;;;17.33;2.90;;;;;;;;;;5005055;28;20519;-70
2024/01/16 12:53:27;;;;;;;13.95;2.55;;;;;;;;;;5002142;28;20022;-70
2024/01/16 12:56:04;;;;;;;12.98;2.22;;;;;;;;;;5005794;28;20512;-70
2024/01/16 12:58:34;;;;;;;10.40;2.83;;;;;;;;;;5004119;28;20040;-70
2024/01/16 13:01:19;;;;;;;11.30;2.75;;;;;;;;;;5005602;28;20022;-70
2024/01/16 13:03:45;;;;;;;9.35;2.42;;;;;;;;;;5004255;28;20112;-70
2024/01/16 13:06:10;;;;;;;15.20;3.42;;;;;;;;;;5002037;28;20105;-70
2024/01/16 13:08:35;;;;;;;10.93;3.33;;;;;;;;;;5004573;28;20485;-70
2024/01/16 13:11:07;;;;;;;13.77;3.83;;;;;;;;;;5005450;28;20512;-70
2024/01/16 13:13:32;;;;;;;12.18;3.83;;;;;;;;;;5009698;28;20037;-70
2024/01/16 13:15:58;;;;;;;16.92;3.42;;;;;;;;;;5007987;28;20029;-70
2024/01/16 13:18:24;;;;;;;20.60;4.15;;;;;;;;;;5009139;28;20022;-70
2024/01/16 13:20:50;;;;;;;13.15;3.25;;;;;;;;;;5006830;28;20026;-70
2024/01/16 13:23:15;;;;;;;9.02;1.70;;;;;;;;;;5008482;28;20145;-70
2024/01/16 13:25:45;;;;;;;10.52;3.28;;;;;;;;;;5006595;28;20109;-70
2024/01/16 13:28:13;;;;;;;6.95;2.75;;;;;;;;;;5001131;28;20030;-70
2024/01/16 13:30:39;;;;;;;19.52;4.40;;;;;;;;;;5006308;28;20022;-70
2024/01/16 13:33:05;;;;;;;17.17;4.60;;;;;;;;;;5001951;28;20064;-70
2024/01/16 13:35:31;;;;;;;13.88;3.88;;;;;;;;;;5003950;28;20113;-70
2024/01/16 13:37:56;;;;;;;19.90;3.85;;;;;;;;;;5004145;28;20113;-70
2024/01/16 13:40:22;;;;;;;21.45;4.63;;;;;;;;;;5001386;28;20037;-70
2024/01/16 13:42:47;;;;;;;24.90;4.13;;;;;;;;;;5004394;28;20034;-70
2024/01/16 13:45:13;;;;;;;12.73;3.40;;;;;;;;;;5000193;28;20050;-70
2024/01/16 13:47:40;;;;;;;20.05;3.40;;;;;;;;;;5003881;28;20030;-70
2024/01/16 13:50:06;;;;;;;11.35;4.03;;;;;;;;;;5003551;28;20067;-70
2024/01/16 13:52:31;;;;;;;7.00;1.88;;;;;;;;;;5003358;28;20097;-70
2024/01/16 13:54:57;;;;;;;15.35;4.03;;;;;;;;;;5001390;28;20028;-70
2024/01/16 13:57:22;;;;;;;15.13;3.80;;;;;;;;;;5000798;28;20025;-70
2024/01/16 13:59:47;;;;;;;23.40;4.10;;;;;;;;;;5000808;28;20079;-70
2024/01/16 14:02:13;;;;;;;20.73;2.97;;;;;;;;;;5003340;28;20433;-70
2024/01/16 14:04:38;;;;;;;13.82;3.22;;;;;;;;;;5005421;28;20030;-70
2024/01/16 14:07:03;;;;;;;12.05;2.88;;;;;;;;;;5006730;28;20045;-70
2024/01/16 14:09:32;;;;;;;13.32;6.82;;;;;;;;;;4996863;28;20041;-68
2024/01/16 14:11:57;;;;;;;9.32;4.53;;;;;;;;;;5007301;28;20109;-68
2024/01/16 14:14:23;;;;;;;10.73;5.57;;;;;;;;;;5005365;28;20144;-68
2024/01/16 14:16:49;;;;;;;20.63;5.82;;;;;;;;;;5005514;28;20037;-69
2024/01/16 14:19:14;;;;;;;18.15;4.18;;;;;;;;;;5005525;28;20018;-69
2024/01/16 14:21:39;;;;;;;11.13;3.03;;;;;;;;;;5007036;28;20038;-68